Time;durP1;ratioP1;P1;durP2;ratioP2;P2;SDS_P1;SDS_P2;PMS_P1;PMS_P2;Temp;Humidity;BMP_temperature;BMP_pressure;BME280_temperature;BME280_humidity;BME280_pressure;Samples;Min_cycle;Max_cycle;Signal;HPM_P1;HPM_P2
2021/01/05 00:02:21;;;;;;;16.97;12.93;;;3.60;99.90;;;;;;5015017;28;20411;-58
2021/01/05 00:04:46;;;;;;;19.07;13.60;;;3.60;99.90;;;;;;5014702;28;20184;-58
2021/01/05 00:07:13;;;;;;;16.07;12.87;;;3.70;99.90;;;;;;5014816;28;20199;-59
2021/01/05 00:09:38;;;;;;;19.60;14.60;;;3.70;99.90;;;;;;5014891;28;20214;-59
2021/01/05 00:12:10;;;;;;;20.07;14.90;;;3.40;99.90;;;;;;5014769;28;20415;-61
2021/01/05 00:14:39;;;;;;;21.50;15.70;;;3.10;99.90;;;;;;4997777;28;20172;-61
2021/01/05 00:17:06;;;;;;;18.73;14.80;;;3.00;99.90;;;;;;5015005;28;20410;-61
2021/01/05 00:19:31;;;;;;;20.30;14.23;;;3.00;99.90;;;;;;5014850;28;20427;-61
2021/01/05 00:21:57;;;;;;;21.33;15.13;;;3.00;99.90;;;;;;5014523;28;20984;-61
2021/01/05 00:24:23;;;;;;;22.07;15.80;;;3.10;99.90;;;;;;5015152;28;20957;-61
2021/01/05 00:26:48;;;;;;;20.87;16.83;;;3.00;99.90;;;;;;5014483;28;20278;-61
2021/01/05 00:29:14;;;;;;;19.90;14.80;;;2.90;99.90;;;;;;5014622;28;20566;-60
2021/01/05 00:31:40;;;;;;;20.33;16.57;;;3.10;99.90;;;;;;5017122;28;20168;-61
2021/01/05 00:34:07;;;;;;;23.00;17.10;;;3.00;99.90;;;;;;5014645;28;20403;-61
2021/01/05 00:36:33;;;;;;;19.83;15.50;;;3.20;99.90;;;;;;5014206;28;20253;-60
2021/01/05 00:38:59;;;;;;;19.50;15.30;;;3.40;99.90;;;;;;5014277;28;20470;-60
2021/01/05 00:41:25;;;;;;;17.60;13.80;;;3.50;99.90;;;;;;5014659;28;20434;-61
2021/01/05 00:43:50;;;;;;;21.60;16.83;;;3.50;99.90;;;;;;5014393;28;20184;-61
2021/01/05 00:46:18;;;;;;;22.50;15.70;;;3.50;99.90;;;;;;5014179;28;20197;-60
2021/01/05 00:48:44;;;;;;;20.70;16.17;;;3.50;99.90;;;;;;5014260;28;20455;-61
2021/01/05 00:51:11;;;;;;;20.37;15.70;;;3.50;99.90;;;;;;5014362;28;20950;-61
2021/01/05 00:53:37;;;;;;;21.10;15.87;;;3.70;99.90;;;;;;5013657;28;20168;-61
2021/01/05 00:56:02;;;;;;;21.27;16.03;;;3.70;99.90;;;;;;5016933;28;20414;-61
2021/01/05 00:58:28;;;;;;;18.07;14.20;;;3.50;99.90;;;;;;5014257;28;20175;-59
2021/01/05 01:00:54;;;;;;;22.17;15.13;;;3.50;99.90;;;;;;5014381;28;20196;-60
2021/01/05 01:03:20;;;;;;;20.93;15.67;;;3.60;99.90;;;;;;5013928;28;20168;-61
2021/01/05 01:05:47;;;;;;;25.63;17.30;;;3.70;99.90;;;;;;5013835;28;20179;-60
2021/01/05 01:08:14;;;;;;;20.13;15.57;;;3.80;99.90;;;;;;5013791;28;20461;-61
2021/01/05 01:10:40;;;;;;;18.73;14.87;;;3.80;99.90;;;;;;5013932;28;20518;-59
2021/01/05 01:13:07;;;;;;;19.40;15.57;;;3.60;99.90;;;;;;5014026;28;20431;-60
2021/01/05 01:15:32;;;;;;;20.70;15.07;;;3.30;99.90;;;;;;5013387;28;20176;-58
2021/01/05 01:17:58;;;;;;;23.00;17.80;;;3.40;99.90;;;;;;5013920;28;20938;-61
2021/01/05 01:20:23;;;;;;;23.07;16.30;;;3.50;99.90;;;;;;5013532;28;20196;-61
2021/01/05 01:22:49;;;;;;;19.83;16.63;;;3.50;99.90;;;;;;5013518;28;20638;-60
2021/01/05 01:25:15;;;;;;;23.47;18.17;;;3.50;99.90;;;;;;5013896;28;20250;-60
2021/01/05 01:27:41;;;;;;;21.30;16.63;;;3.50;99.90;;;;;;5013559;28;20206;-58
2021/01/05 01:30:08;;;;;;;19.90;16.50;;;3.50;99.90;;;;;;5013779;28;20436;-60
2021/01/05 01:32:33;;;;;;;20.87;15.80;;;3.50;99.90;;;;;;5014177;28;20169;-60
2021/01/05 01:34:59;;;;;;;22.23;16.50;;;3.50;99.90;;;;;;5013438;28;20900;-60
2021/01/05 01:37:25;;;;;;;21.23;16.27;;;3.60;99.90;;;;;;5013166;28;20172;-59
2021/01/05 01:39:51;;;;;;;21.60;15.87;;;3.70;99.90;;;;;;5013584;28;20522;-60
2021/01/05 01:42:19;;;;;;;20.50;15.90;;;3.70;99.90;;;;;;5013632;28;20179;-60
2021/01/05 01:44:46;;;;;;;21.37;16.47;;;3.30;99.90;;;;;;5014184;28;20415;-60
2021/01/05 01:47:18;;;;;;;21.03;16.80;;;3.10;99.90;;;;;;4995609;28;20458;-60
2021/01/05 01:49:47;;;;;;;20.83;14.87;;;3.20;99.90;;;;;;5013231;28;20534;-60
2021/01/05 01:52:16;;;;;;;24.80;16.37;;;3.40;99.90;;;;;;5013140;28;20411;-60
2021/01/05 01:55:15;;;;;;;23.33;15.33;;;3.50;99.90;;;;;;5013267;28;20418;-60
2021/01/05 01:58:14;;;;;;;21.93;17.60;;;3.70;99.90;;;;;;5013237;28;20882;-60
2021/01/05 02:01:21;;;;;;;22.30;16.67;;;3.90;99.90;;;;;;5012427;28;20500;-60
2021/01/05 02:04:01;;;;;;;21.53;16.43;;;3.70;99.90;;;;;;4984077;28;20419;-59
2021/01/05 02:06:45;;;;;;;21.37;15.80;;;3.70;99.90;;;;;;5012819;28;20819;-58
2021/01/05 02:09:16;;;;;;;23.27;15.50;;;3.70;99.90;;;;;;5013469;28;20517;-60
2021/01/05 02:12:06;;;;;;;22.30;17.97;;;3.50;99.90;;;;;;5013135;28;20836;-59
2021/01/05 02:14:53;;;;;;;23.50;18.17;;;3.60;99.90;;;;;;5013362;28;20391;-60
2021/01/05 02:17:47;;;;;;;23.63;16.17;;;3.70;99.90;;;;;;5013062;28;20429;-60
2021/01/05 02:20:19;;;;;;;24.50;15.70;;;3.90;99.90;;;;;;5013258;28;20427;-60
2021/01/05 02:23:32;;;;;;;21.47;16.10;;;3.90;99.90;;;;;;5012851;28;20391;-60
2021/01/05 02:26:01;;;;;;;24.27;17.20;;;4.00;99.90;;;;;;5007999;28;20419;-60
2021/01/05 02:28:38;;;;;;;23.00;16.40;;;3.80;99.90;;;;;;5016621;28;20597;-60
2021/01/05 02:31:20;;;;;;;23.23;17.30;;;3.80;99.90;;;;;;5019462;28;20382;-60
2021/01/05 02:33:45;;;;;;;25.70;17.03;;;3.80;99.90;;;;;;5016663;28;20386;-60
2021/01/05 02:36:26;;;;;;;20.70;16.10;;;3.90;99.90;;;;;;5016386;28;20401;-60
2021/01/05 02:38:54;;;;;;;19.93;16.60;;;3.80;99.90;;;;;;5016796;28;20184;-59
2021/01/05 02:41:43;;;;;;;27.80;19.90;;;3.80;99.90;;;;;;5016779;28;20765;-60
2021/01/05 02:44:29;;;;;;;22.30;17.60;;;3.90;99.90;;;;;;5017066;28;20383;-60
2021/01/05 02:47:35;;;;;;;21.00;16.07;;;3.90;99.90;;;;;;5016615;28;20461;-60
2021/01/05 02:50:12;;;;;;;21.20;16.40;;;4.00;99.90;;;;;;4993809;28;20491;-60
2021/01/05 02:53:24;;;;;;;25.73;17.33;;;3.80;99.90;;;;;;5016536;28;20391;-60
2021/01/05 02:56:08;;;;;;;23.47;16.93;;;3.80;99.90;;;;;;5017107;28;20387;-59
2021/01/05 02:59:11;;;;;;;20.90;15.73;;;3.70;99.90;;;;;;5016527;28;20533;-59
2021/01/05 03:01:56;;;;;;;24.30;18.30;;;3.80;99.90;;;;;;5015798;28;20469;-60
2021/01/05 03:04:21;;;;;;;22.97;16.73;;;3.80;99.90;;;;;;5016237;28;20380;-60
2021/01/05 03:06:55;;;;;;;24.77;17.30;;;3.90;99.90;;;;;;5015877;28;20544;-60
2021/01/05 03:09:29;;;;;;;24.13;17.33;;;3.80;99.90;;;;;;5016259;28;20681;-60
2021/01/05 03:12:32;;;;;;;28.30;19.20;;;3.90;99.90;;;;;;5016460;28;20386;-60
2021/01/05 03:15:18;;;;;;;25.33;17.57;;;3.90;99.90;;;;;;5016196;28;20406;-60
2021/01/05 03:17:50;;;;;;;25.17;19.50;;;3.80;99.90;;;;;;5016250;28;20379;-60
2021/01/05 03:20:26;;;;;;;26.27;18.93;;;3.80;99.90;;;;;;5016119;28;20812;-60
2021/01/05 03:23:07;;;;;;;28.37;21.13;;;3.80;99.90;;;;;;5015383;28;20414;-59
2021/01/05 03:25:37;;;;;;;30.37;21.10;;;3.80;99.90;;;;;;5015834;28;20399;-60
2021/01/05 03:28:05;;;;;;;26.60;19.27;;;3.80;99.90;;;;;;5015601;28;20496;-60
2021/01/05 03:30:33;;;;;;;30.63;20.70;;;3.90;99.90;;;;;;5015654;28;20442;-60
2021/01/05 03:32:59;;;;;;;32.43;21.77;;;3.90;99.90;;;;;;5015583;28;20534;-59
2021/01/05 03:35:27;;;;;;;33.07;23.70;;;4.00;99.90;;;;;;5015771;28;20461;-61
2021/01/05 03:37:57;;;;;;;34.83;21.73;;;3.90;99.90;;;;;;5014920;28;20250;-60
2021/01/05 03:40:23;;;;;;;28.87;20.43;;;4.00;99.90;;;;;;5015320;28;20789;-61
2021/01/05 03:42:49;;;;;;;26.97;20.33;;;3.90;99.90;;;;;;5015678;28;20407;-61
2021/01/05 03:45:27;;;;;;;31.40;21.60;;;4.00;99.90;;;;;;5015717;28;20899;-60
2021/01/05 03:47:54;;;;;;;30.70;21.17;;;4.10;99.90;;;;;;5015414;28;20515;-60
2021/01/05 03:50:21;;;;;;;29.40;21.20;;;4.10;99.90;;;;;;5020343;28;20951;-60
2021/01/05 03:52:46;;;;;;;34.63;21.73;;;3.90;99.90;;;;;;5015179;28;20439;-61
2021/01/05 03:55:14;;;;;;;32.60;20.40;;;3.90;99.90;;;;;;5016102;28;20861;-60
2021/01/05 03:57:39;;;;;;;30.10;21.43;;;4.00;99.90;;;;;;5015768;28;20410;-60
2021/01/05 04:00:07;;;;;;;32.87;21.60;;;4.10;99.90;;;;;;5015502;28;20442;-60
2021/01/05 04:02:33;;;;;;;33.20;22.30;;;4.00;99.90;;;;;;5015540;28;20175;-59
2021/01/05 04:04:59;;;;;;;27.70;19.43;;;4.00;99.90;;;;;;5015987;28;20482;-60
2021/01/05 04:07:24;;;;;;;27.87;19.60;;;4.20;99.90;;;;;;5015373;28;20195;-59
2021/01/05 04:09:50;;;;;;;26.97;21.00;;;4.00;99.90;;;;;;5014470;28;20195;-60
2021/01/05 04:12:16;;;;;;;29.57;21.07;;;3.80;99.90;;;;;;5015466;28;20226;-60
2021/01/05 04:14:42;;;;;;;29.70;21.40;;;3.70;99.90;;;;;;5015333;28;20168;-60
2021/01/05 04:17:07;;;;;;;24.80;18.83;;;3.70;99.90;;;;;;5015151;28;20415;-60
2021/01/05 04:19:33;;;;;;;29.37;20.57;;;3.90;99.90;;;;;;5015010;28;20246;-60
2021/01/05 04:21:58;;;;;;;28.47;21.10;;;4.00;99.90;;;;;;5014471;28;20579;-60
2021/01/05 04:24:24;;;;;;;26.67;19.87;;;4.10;99.90;;;;;;5014742;28;20168;-60
2021/01/05 04:26:50;;;;;;;27.53;19.40;;;4.20;99.90;;;;;;5014573;28;20200;-60
2021/01/05 04:29:15;;;;;;;29.13;19.97;;;4.30;99.90;;;;;;5014603;28;20188;-60
2021/01/05 04:31:43;;;;;;;31.80;21.80;;;4.30;99.90;;;;;;5014688;28;20512;-61
2021/01/05 04:34:10;;;;;;;28.93;19.37;;;4.00;99.90;;;;;;5015446;28;20188;-60
2021/01/05 04:36:36;;;;;;;28.30;20.03;;;4.10;99.90;;;;;;5014345;28;20815;-59
2021/01/05 04:39:03;;;;;;;26.30;20.20;;;4.30;99.90;;;;;;5015002;28;20426;-61
2021/01/05 04:41:36;;;;;;;29.30;21.23;;;4.30;99.90;;;;;;5014245;28;20178;-61
2021/01/05 04:44:04;;;;;;;29.77;21.33;;;4.20;99.90;;;;;;5014591;28;20486;-60
2021/01/05 04:46:40;;;;;;;28.00;21.83;;;4.20;99.90;;;;;;5014166;28;20489;-60
2021/01/05 04:49:29;;;;;;;27.13;20.43;;;4.10;99.90;;;;;;5014004;28;20453;-60
2021/01/05 04:52:16;;;;;;;28.40;20.97;;;4.20;99.90;;;;;;5013445;28;20391;-60
2021/01/05 04:54:53;;;;;;;25.13;17.50;;;4.20;99.90;;;;;;5014656;28;20415;-59
2021/01/05 04:57:19;;;;;;;25.63;19.80;;;4.20;99.90;;;;;;5014193;28;20397;-60
2021/01/05 04:59:57;;;;;;;31.30;21.00;;;4.20;99.90;;;;;;5014354;28;20947;-59
2021/01/05 05:02:28;;;;;;;25.07;18.07;;;4.20;99.90;;;;;;5014448;28;20244;-59
2021/01/05 05:05:03;;;;;;;27.27;18.63;;;4.20;99.90;;;;;;5014138;28;20515;-57
2021/01/05 05:08:11;;;;;;;23.13;19.40;;;4.30;99.90;;;;;;5013840;28;20581;-58
2021/01/05 05:10:52;;;;;;;29.27;20.60;;;4.30;99.90;;;;;;5013711;28;20422;-59
2021/01/05 05:14:00;;;;;;;29.57;21.23;;;4.20;99.90;;;;;;5013738;28;20401;-59
2021/01/05 05:16:28;;;;;;;24.00;17.90;;;4.20;99.90;;;;;;4953662;29;20508;-59
2021/01/05 05:19:18;;;;;;;27.13;20.47;;;4.30;99.90;;;;;;5002905;28;20489;-60
2021/01/05 05:22:10;;;;;;;28.43;19.80;;;4.30;99.90;;;;;;5013483;28;20395;-61
2021/01/05 05:24:44;;;;;;;26.67;20.17;;;4.20;99.90;;;;;;5013971;28;20915;-60
2021/01/05 05:27:45;;;;;;;28.67;21.00;;;4.10;99.90;;;;;;5013987;28;20798;-60
2021/01/05 05:30:17;;;;;;;27.57;19.70;;;4.20;99.90;;;;;;5013446;28;20545;-59
2021/01/05 05:32:54;;;;;;;29.43;21.43;;;4.20;99.90;;;;;;5013773;28;20391;-58
2021/01/05 05:35:37;;;;;;;28.73;20.90;;;4.30;99.90;;;;;;5013912;28;20391;-58
2021/01/05 05:38:22;;;;;;;27.87;21.60;;;4.20;99.90;;;;;;5013551;28;20402;-59
2021/01/05 05:41:31;;;;;;;28.30;21.10;;;4.20;99.90;;;;;;5013994;28;20379;-59
2021/01/05 05:44:14;;;;;;;25.77;19.97;;;4.30;99.90;;;;;;4953117;29;20504;-60
2021/01/05 05:46:47;;;;;;;30.53;20.90;;;4.20;99.90;;;;;;5011269;28;20454;-59
2021/01/05 05:49:32;;;;;;;30.10;21.40;;;4.20;99.90;;;;;;5013385;28;20446;-60
2021/01/05 05:52:01;;;;;;;29.07;22.93;;;4.30;99.90;;;;;;5013067;28;20462;-60
2021/01/05 05:54:26;;;;;;;30.00;21.67;;;4.10;99.90;;;;;;5013572;28;20411;-59
2021/01/05 05:56:59;;;;;;;30.07;21.60;;;4.20;99.90;;;;;;5013580;28;20914;-60
2021/01/05 05:59:52;;;;;;;32.90;22.90;;;4.30;99.90;;;;;;5013125;28;20252;-58
2021/01/05 06:02:21;;;;;;;29.77;20.80;;;4.50;99.90;;;;;;5015951;28;20755;-59
2021/01/05 06:04:48;;;;;;;28.60;20.17;;;4.50;99.90;;;;;;5017249;28;20879;-60
2021/01/05 06:07:14;;;;;;;27.10;20.80;;;4.40;99.90;;;;;;5017301;28;20446;-58
2021/01/05 06:09:40;;;;;;;29.40;19.40;;;4.40;99.90;;;;;;5017103;28;20969;-60
2021/01/05 06:12:06;;;;;;;29.30;20.57;;;4.30;99.90;;;;;;5016999;28;20164;-59
2021/01/05 06:14:32;;;;;;;29.50;20.53;;;4.40;99.90;;;;;;5017287;28;20172;-60
2021/01/05 06:16:58;;;;;;;27.33;20.20;;;4.40;99.90;;;;;;5017319;28;20505;-60
2021/01/05 06:19:23;;;;;;;28.07;21.73;;;4.30;99.90;;;;;;5016881;28;20533;-60
2021/01/05 06:21:49;;;;;;;28.50;20.00;;;4.40;99.90;;;;;;5016856;28;20172;-60
2021/01/05 06:24:14;;;;;;;27.47;20.77;;;4.50;99.90;;;;;;5016844;28;20202;-60
2021/01/05 06:26:40;;;;;;;28.80;20.03;;;4.40;99.90;;;;;;5016908;28;20184;-61
2021/01/05 06:29:06;;;;;;;29.57;20.80;;;4.50;99.90;;;;;;5016748;28;20250;-61
2021/01/05 06:31:31;;;;;;;33.80;22.93;;;4.50;99.90;;;;;;5016732;28;20255;-60
2021/01/05 06:33:57;;;;;;;30.93;22.03;;;4.40;99.90;;;;;;5016566;28;20202;-60
2021/01/05 06:36:23;;;;;;;28.30;22.57;;;4.40;99.90;;;;;;5016657;28;20168;-61
2021/01/05 06:38:49;;;;;;;28.33;22.00;;;4.40;99.90;;;;;;5016681;28;20215;-58
2021/01/05 06:41:15;;;;;;;28.27;22.10;;;4.50;99.90;;;;;;5024981;28;20809;-59
2021/01/05 06:43:41;;;;;;;25.73;19.73;;;4.60;99.90;;;;;;5017906;28;20415;-59
2021/01/05 06:46:10;;;;;;;29.83;19.10;;;4.60;99.90;;;;;;5016457;28;20168;-60
2021/01/05 06:48:36;;;;;;;29.60;22.67;;;4.40;99.90;;;;;;5016371;28;20218;-60
2021/01/05 06:51:05;;;;;;;26.47;19.97;;;4.60;99.90;;;;;;5016380;28;20403;-60
2021/01/05 06:53:31;;;;;;;25.83;19.57;;;4.50;99.90;;;;;;5015922;28;20160;-60
2021/01/05 06:55:56;;;;;;;28.27;22.13;;;4.50;99.90;;;;;;5016159;28;20403;-60
2021/01/05 06:58:22;;;;;;;29.40;22.90;;;4.50;99.90;;;;;;5015978;28;20654;-59
2021/01/05 07:00:47;;;;;;;26.13;20.67;;;4.30;99.90;;;;;;5016038;28;20278;-60
2021/01/05 07:03:13;;;;;;;26.50;21.07;;;4.20;99.90;;;;;;5016117;28;20222;-60
2021/01/05 07:05:38;;;;;;;27.53;20.83;;;4.30;99.90;;;;;;5016340;28;20214;-60
2021/01/05 07:08:04;;;;;;;25.57;19.80;;;4.20;99.90;;;;;;5015958;28;20727;-60
2021/01/05 07:10:30;;;;;;;31.63;20.73;;;4.30;99.90;;;;;;5015775;28;20192;-59
2021/01/05 07:12:55;;;;;;;26.30;19.20;;;4.30;99.90;;;;;;5015162;28;20407;-59
2021/01/05 07:15:21;;;;;;;29.10;21.93;;;4.10;99.90;;;;;;5015812;28;20275;-60
2021/01/05 07:17:46;;;;;;;25.70;19.80;;;4.10;99.90;;;;;;5015930;28;20168;-59
2021/01/05 07:20:13;;;;;;;25.67;21.57;;;4.10;99.90;;;;;;5015855;28;20622;-60
2021/01/05 07:22:39;;;;;;;23.43;18.90;;;4.20;99.90;;;;;;5016131;28;20631;-60
2021/01/05 07:25:06;;;;;;;23.60;17.47;;;4.20;99.90;;;;;;5016041;28;20426;-60
2021/01/05 07:27:32;;;;;;;25.30;19.20;;;4.00;99.90;;;;;;5015907;28;20183;-59
2021/01/05 07:29:57;;;;;;;30.53;21.10;;;4.10;99.90;;;;;;5015455;28;20434;-59
2021/01/05 07:32:23;;;;;;;25.10;19.47;;;4.10;99.90;;;;;;5015564;28;20533;-60
2021/01/05 07:34:49;;;;;;;28.70;20.77;;;4.10;99.90;;;;;;5015508;28;20215;-60
2021/01/05 07:37:18;;;;;;;26.03;21.07;;;4.10;99.90;;;;;;5015308;28;20283;-60
2021/01/05 07:39:44;;;;;;;28.70;19.53;;;4.20;99.90;;;;;;5015554;28;20630;-60
2021/01/05 07:42:23;;;;;;;24.50;18.87;;;4.30;99.90;;;;;;5015310;28;20449;-58
2021/01/05 07:44:51;;;;;;;26.80;19.40;;;4.10;99.90;;;;;;5015708;28;20555;-60
2021/01/05 07:47:18;;;;;;;25.00;19.40;;;4.10;99.90;;;;;;5015210;28;20478;-60
2021/01/05 07:49:44;;;;;;;28.70;20.53;;;4.10;99.90;;;;;;5014935;28;20447;-60
2021/01/05 07:52:30;;;;;;;24.30;18.70;;;4.10;99.90;;;;;;5015143;28;20489;-60
2021/01/05 07:54:56;;;;;;;29.10;20.87;;;4.20;99.90;;;;;;5015111;28;20411;-60
2021/01/05 07:57:22;;;;;;;24.27;19.50;;;4.20;99.90;;;;;;5015928;28;20946;-61
2021/01/05 07:59:47;;;;;;;32.53;21.50;;;4.00;99.90;;;;;;5015439;28;20775;-59
2021/01/05 08:02:13;;;;;;;25.40;18.60;;;3.90;99.90;;;;;;5015709;28;20167;-60
2021/01/05 08:04:41;;;;;;;23.67;18.70;;;4.10;99.90;;;;;;5015451;28;20653;-59
2021/01/05 08:07:07;;;;;;;26.50;19.33;;;4.00;99.90;;;;;;5014964;28;20271;-57
2021/01/05 08:09:33;;;;;;;23.40;19.00;;;4.00;99.90;;;;;;5015346;28;20783;-59
2021/01/05 08:11:59;;;;;;;22.73;17.47;;;3.90;99.90;;;;;;5014734;28;20411;-61
2021/01/05 08:14:24;;;;;;;24.47;19.33;;;4.00;99.90;;;;;;5015130;28;20399;-61
2021/01/05 08:16:50;;;;;;;20.27;16.00;;;4.10;99.90;;;;;;5014687;28;20640;-61
2021/01/05 08:19:17;;;;;;;25.10;19.03;;;4.00;99.90;;;;;;5014827;28;20199;-61
2021/01/05 08:21:42;;;;;;;21.33;16.73;;;4.10;99.90;;;;;;5014981;28;20939;-60
2021/01/05 08:24:08;;;;;;;21.17;16.53;;;4.20;99.90;;;;;;5014256;28;20403;-61
2021/01/05 08:26:34;;;;;;;21.60;16.20;;;4.30;99.90;;;;;;5014906;28;20226;-61
2021/01/05 08:28:59;;;;;;;24.63;18.17;;;4.40;99.90;;;;;;5014460;28;20430;-61
2021/01/05 08:31:38;;;;;;;24.23;17.80;;;4.40;99.90;;;;;;5017573;28;20242;-59
2021/01/05 08:34:03;;;;;;;24.73;18.00;;;4.20;99.90;;;;;;5014888;28;20482;-61
2021/01/05 08:36:30;;;;;;;21.03;16.40;;;4.10;99.90;;;;;;5014948;28;20943;-61
2021/01/05 08:38:57;;;;;;;23.03;17.43;;;4.20;99.90;;;;;;5014708;28;20567;-61
2021/01/05 08:41:23;;;;;;;26.43;18.63;;;4.10;99.90;;;;;;5015295;28;20426;-59
2021/01/05 08:43:49;;;;;;;21.23;17.13;;;4.00;99.90;;;;;;5015231;28;20844;-60
2021/01/05 08:46:26;;;;;;;22.70;15.90;;;3.90;99.90;;;;;;5014989;28;20414;-60
2021/01/05 08:48:52;;;;;;;20.90;18.03;;;3.90;99.90;;;;;;5014725;28;20825;-60
2021/01/05 08:51:19;;;;;;;21.40;17.20;;;3.80;99.90;;;;;;5014261;28;20415;-61
2021/01/05 08:53:46;;;;;;;23.73;17.00;;;3.70;99.90;;;;;;5013861;28;20410;-60
2021/01/05 08:56:24;;;;;;;21.57;16.67;;;3.80;99.90;;;;;;5014750;28;20877;-60
2021/01/05 08:58:50;;;;;;;25.10;20.70;;;3.80;99.90;;;;;;5014033;28;20462;-61
2021/01/05 09:01:16;;;;;;;24.43;18.93;;;4.00;99.90;;;;;;5013963;28;20431;-61
2021/01/05 09:03:42;;;;;;;21.20;17.67;;;4.10;99.90;;;;;;5014108;28;20418;-61
2021/01/05 09:06:08;;;;;;;24.40;18.60;;;4.20;99.90;;;;;;5013996;28;20411;-61
2021/01/05 09:08:35;;;;;;;20.40;15.87;;;4.10;99.90;;;;;;5013286;28;20200;-61
2021/01/05 09:11:07;;;;;;;22.83;19.10;;;4.20;99.90;;;;;;5013548;28;20407;-61
2021/01/05 09:13:33;;;;;;;22.30;17.50;;;4.10;99.90;;;;;;5013897;28;20553;-60
2021/01/05 09:15:58;;;;;;;17.80;15.40;;;4.10;99.90;;;;;;5013926;28;20502;-59
2021/01/05 09:18:24;;;;;;;22.10;17.80;;;4.00;99.90;;;;;;5013560;28;20501;-60
2021/01/05 09:20:52;;;;;;;19.30;15.40;;;4.20;99.90;;;;;;5013988;28;20259;-60
2021/01/05 09:23:24;;;;;;;21.63;16.57;;;4.30;99.90;;;;;;5013755;28;20633;-61
2021/01/05 09:25:54;;;;;;;21.27;16.90;;;4.40;99.90;;;;;;5014106;28;20402;-61
2021/01/05 09:28:22;;;;;;;23.10;18.37;;;4.30;99.90;;;;;;5014131;28;20470;-60
2021/01/05 09:30:49;;;;;;;25.63;18.13;;;4.30;99.90;;;;;;5013700;28;20422;-60
2021/01/05 09:33:16;;;;;;;19.73;16.07;;;4.40;99.90;;;;;;5008522;28;20435;-61
2021/01/05 09:35:42;;;;;;;23.93;19.07;;;4.00;99.90;;;;;;5020502;28;20409;-61
2021/01/05 09:38:08;;;;;;;20.90;18.00;;;4.00;99.90;;;;;;5013261;28;20779;-61
2021/01/05 09:40:39;;;;;;;22.53;18.23;;;4.00;99.90;;;;;;5013323;28;20521;-61
2021/01/05 09:43:11;;;;;;;22.60;16.97;;;4.00;99.90;;;;;;5013680;28;20414;-61
2021/01/05 09:45:38;;;;;;;22.37;17.73;;;4.00;99.90;;;;;;5013910;28;20821;-61
2021/01/05 09:48:14;;;;;;;22.07;16.80;;;3.90;99.90;;;;;;5013261;28;20474;-61
2021/01/05 09:50:42;;;;;;;23.37;18.77;;;3.90;99.90;;;;;;5013678;28;20481;-60
2021/01/05 09:53:08;;;;;;;20.53;16.53;;;4.00;99.90;;;;;;5013469;28;20415;-61
2021/01/05 09:55:34;;;;;;;22.83;18.07;;;4.00;99.90;;;;;;5013740;28;20891;-60
2021/01/05 09:58:00;;;;;;;22.37;19.30;;;3.90;99.90;;;;;;5013650;28;20448;-61
2021/01/05 10:00:26;;;;;;;25.47;21.60;;;3.80;99.90;;;;;;5013866;28;20250;-60
2021/01/05 10:02:52;;;;;;;30.73;23.33;;;3.90;99.90;;;;;;5013754;28;20900;-61
2021/01/05 10:05:18;;;;;;;24.37;19.87;;;3.90;99.90;;;;;;5013766;28;20477;-59
2021/01/05 10:07:44;;;;;;;23.67;17.70;;;4.00;99.90;;;;;;5019387;28;20553;-59
2021/01/05 10:10:22;;;;;;;24.77;19.87;;;4.30;99.90;;;;;;5020949;28;20431;-59
2021/01/05 10:12:47;;;;;;;28.90;21.93;;;4.30;99.90;;;;;;5020349;28;20414;-58
2021/01/05 10:15:15;;;;;;;26.30;19.63;;;4.50;99.90;;;;;;5020067;28;20898;-58
2021/01/05 10:17:41;;;;;;;23.10;18.63;;;4.70;99.90;;;;;;5020674;28;20179;-58
2021/01/05 10:20:10;;;;;;;22.30;18.57;;;4.60;99.90;;;;;;5020614;28;20481;-59
2021/01/05 10:22:36;;;;;;;29.53;21.07;;;4.70;99.90;;;;;;5020743;28;20180;-60
2021/01/05 10:25:01;;;;;;;23.43;18.83;;;4.80;99.90;;;;;;5019956;28;20416;-56
2021/01/05 10:27:27;;;;;;;24.20;19.37;;;4.70;99.90;;;;;;5019697;28;20250;-60
2021/01/05 10:29:55;;;;;;;24.23;20.00;;;4.60;99.90;;;;;;5020324;28;20223;-60
2021/01/05 10:32:21;;;;;;;24.63;17.67;;;4.20;99.90;;;;;;5019026;28;20227;-57
2021/01/05 10:34:47;;;;;;;29.20;20.83;;;4.40;99.90;;;;;;5020340;28;20419;-57
2021/01/05 10:37:12;;;;;;;27.93;20.13;;;4.50;99.90;;;;;;5019805;28;20818;-59
2021/01/05 10:39:38;;;;;;;25.43;19.50;;;4.60;99.90;;;;;;5019321;28;20720;-60
2021/01/05 10:42:04;;;;;;;22.30;17.30;;;4.60;99.90;;;;;;5022526;28;20180;-58
2021/01/05 10:44:30;;;;;;;20.60;17.47;;;4.70;99.90;;;;;;5020494;28;20276;-59
2021/01/05 10:47:01;;;;;;;23.10;17.97;;;4.70;99.90;;;;;;5019767;28;20493;-59
2021/01/05 10:49:26;;;;;;;24.53;19.70;;;4.70;99.90;;;;;;5024022;28;20233;-59
2021/01/05 10:51:54;;;;;;;23.63;18.83;;;4.50;99.90;;;;;;5023720;28;20489;-59
2021/01/05 10:54:21;;;;;;;20.80;17.43;;;4.40;99.90;;;;;;5023110;28;20223;-59
2021/01/05 10:56:55;;;;;;;25.70;20.37;;;4.40;99.90;;;;;;5023506;28;20415;-57
2021/01/05 10:59:20;;;;;;;20.77;18.50;;;4.40;99.90;;;;;;5022766;28;20442;-60
2021/01/05 11:01:46;;;;;;;27.47;20.13;;;4.40;99.90;;;;;;5022907;28;20407;-60
2021/01/05 11:04:11;;;;;;;24.10;18.57;;;4.50;99.90;;;;;;5023394;28;20642;-59
2021/01/05 11:06:37;;;;;;;24.00;19.17;;;4.60;99.90;;;;;;5023153;28;20543;-56
2021/01/05 11:09:03;;;;;;;23.93;18.93;;;4.80;99.90;;;;;;5021789;28;20196;-60
2021/01/05 11:11:29;;;;;;;24.90;17.70;;;4.90;99.90;;;;;;5022820;28;20168;-56
2021/01/05 11:13:54;;;;;;;21.63;17.30;;;4.70;99.90;;;;;;5023740;28;20498;-58
2021/01/05 11:16:20;;;;;;;24.10;19.27;;;4.50;99.90;;;;;;5023412;28;20210;-59
2021/01/05 11:18:46;;;;;;;24.27;16.67;;;4.50;99.90;;;;;;5022726;28;20703;-59
2021/01/05 11:21:13;;;;;;;25.47;19.33;;;4.70;99.90;;;;;;5022677;28;20594;-59
2021/01/05 11:23:39;;;;;;;22.70;18.03;;;4.70;99.90;;;;;;5022899;28;20660;-60
2021/01/05 11:26:12;;;;;;;23.73;17.90;;;4.70;99.90;;;;;;5023033;28;20422;-59
2021/01/05 11:28:38;;;;;;;20.20;16.93;;;4.80;99.90;;;;;;5022563;28;20450;-59
2021/01/05 11:31:04;;;;;;;25.67;18.60;;;4.70;99.90;;;;;;5023040;28;20810;-59
2021/01/05 11:33:30;;;;;;;25.47;18.13;;;4.80;99.90;;;;;;5022815;28;20164;-58
2021/01/05 11:35:56;;;;;;;24.00;19.00;;;4.50;99.90;;;;;;5022321;28;20468;-58
2021/01/05 11:38:21;;;;;;;24.00;18.70;;;4.60;99.90;;;;;;5022155;28;20757;-60
2021/01/05 11:40:47;;;;;;;26.57;19.63;;;4.50;99.90;;;;;;5022147;28;20584;-58
2021/01/05 11:43:12;;;;;;;23.07;17.20;;;4.30;99.90;;;;;;5022437;28;20625;-58
2021/01/05 11:45:38;;;;;;;20.80;16.83;;;4.20;99.90;;;;;;5022939;28;20160;-59
2021/01/05 11:48:04;;;;;;;21.97;18.20;;;4.50;99.90;;;;;;5022623;28;20202;-59
2021/01/05 11:50:30;;;;;;;21.73;18.03;;;4.70;99.90;;;;;;5021853;28;20279;-60
2021/01/05 11:52:56;;;;;;;25.37;19.07;;;4.80;99.90;;;;;;5022179;28;20446;-60
2021/01/05 11:55:21;;;;;;;22.03;18.30;;;4.90;99.90;;;;;;5022765;28;20168;-60
2021/01/05 11:57:47;;;;;;;24.00;19.03;;;4.70;99.90;;;;;;5023349;28;20195;-60
2021/01/05 12:00:18;;;;;;;23.67;19.83;;;4.60;99.90;;;;;;5021665;28;20199;-60
2021/01/05 12:02:44;;;;;;;24.03;19.00;;;4.50;99.90;;;;;;5022620;28;20215;-60
2021/01/05 12:05:14;;;;;;;24.37;18.97;;;4.40;99.90;;;;;;5021750;28;20419;-58
2021/01/05 12:07:40;;;;;;;24.53;18.80;;;4.30;99.90;;;;;;5021486;28;20192;-59
2021/01/05 12:10:06;;;;;;;24.60;18.77;;;4.40;99.90;;;;;;5021178;28;20438;-59
2021/01/05 12:12:32;;;;;;;23.13;17.80;;;4.50;99.90;;;;;;5020812;28;20418;-59
2021/01/05 12:14:57;;;;;;;26.90;20.40;;;4.30;99.90;;;;;;5021502;28;20407;-59
2021/01/05 12:17:23;;;;;;;25.10;19.77;;;4.10;99.90;;;;;;5020954;28;20195;-58
2021/01/05 12:19:49;;;;;;;31.67;22.53;;;4.20;99.90;;;;;;5021325;28;20685;-59
2021/01/05 12:22:14;;;;;;;23.80;17.83;;;4.20;99.90;;;;;;5021117;28;20178;-59
2021/01/05 12:24:44;;;;;;;26.73;19.33;;;4.10;99.90;;;;;;5020396;28;20254;-60
2021/01/05 12:27:12;;;;;;;21.97;16.90;;;4.10;99.90;;;;;;5026335;28;20289;-59
2021/01/05 12:29:41;;;;;;;25.07;19.00;;;4.20;99.90;;;;;;5020624;28;21017;-59
2021/01/05 12:32:10;;;;;;;25.87;19.13;;;4.40;99.90;;;;;;5020082;28;20465;-59
2021/01/05 12:34:39;;;;;;;27.30;19.80;;;4.60;99.90;;;;;;5020133;28;20406;-59
2021/01/05 12:37:07;;;;;;;26.23;20.07;;;4.70;99.90;;;;;;5020669;28;20418;-60
2021/01/05 12:39:34;;;;;;;24.40;17.77;;;4.70;99.90;;;;;;5020847;28;20423;-60
2021/01/05 12:42:08;;;;;;;21.70;17.40;;;4.70;99.90;;;;;;5023906;28;20915;-60
2021/01/05 12:44:34;;;;;;;26.00;19.20;;;4.80;99.90;;;;;;5021835;28;20425;-59
2021/01/05 12:47:00;;;;;;;23.20;18.87;;;4.70;99.90;;;;;;5020778;28;20478;-60
2021/01/05 12:49:25;;;;;;;26.40;19.17;;;4.80;99.90;;;;;;5021232;28;20462;-60
2021/01/05 12:51:51;;;;;;;25.67;19.30;;;4.80;99.90;;;;;;5021533;28;20168;-59